createdAt,value
2019-04-06T00:02:15.030Z,96359.89
2019-04-06T00:04:41.914Z,96361.65
2019-04-06T00:07:08.550Z,96359.24
2019-04-06T00:09:35.414Z,96363.50
2019-04-06T00:12:02.007Z,96362.05
2019-04-06T00:14:28.656Z,96367.92
2019-04-06T00:16:56.041Z,96369.80
2019-04-06T00:19:22.640Z,96375.53
2019-04-06T00:21:49.301Z,96369.23
2019-04-06T00:24:15.946Z,96371.11
2019-04-06T00:26:42.839Z,96367.94
2019-04-06T00:29:09.498Z,96371.44
2019-04-06T00:31:36.387Z,96380.13
2019-04-06T00:34:03.007Z,96365.77
2019-04-06T00:36:29.870Z,96372.61
2019-04-06T00:38:56.880Z,96370.38
2019-04-06T00:41:24.215Z,96368.98
2019-04-06T00:43:50.966Z,96370.14
2019-04-06T00:46:17.583Z,96367.66
2019-04-06T00:48:44.637Z,96366.98
2019-04-06T00:51:11.220Z,96366.95
2019-04-06T00:53:37.964Z,96364.84
2019-04-06T00:56:04.564Z,96366.01
2019-04-06T00:58:31.190Z,96362.74
2019-04-06T01:00:58.036Z,96364.91
2019-04-06T01:03:25.711Z,96366.63
2019-04-06T01:05:52.377Z,96357.91
2019-04-06T01:08:19.270Z,96362.52
2019-04-06T01:10:45.871Z,96367.40
2019-04-06T01:13:12.467Z,96368.01
2019-04-06T01:15:39.365Z,96369.33
2019-04-06T01:18:06.528Z,96372.20
2019-04-06T01:20:33.542Z,96370.31
2019-04-06T01:23:00.152Z,96374.59
2019-04-06T01:28:12.277Z,96382.47
2019-04-06T01:30:39.110Z,96383.40
2019-04-06T01:33:05.813Z,96379.08
2019-04-06T01:35:33.565Z,96382.52
2019-04-06T01:38:00.163Z,96378.49
2019-04-06T01:40:27.029Z,96376.62
2019-04-06T01:42:53.662Z,96377.16
2019-04-06T01:45:20.248Z,96388.09
2019-04-06T01:47:46.861Z,96385.28
2019-04-06T01:50:13.464Z,96382.13
2019-04-06T01:52:40.367Z,96383.56
2019-04-06T01:55:06.969Z,96380.69
2019-04-06T01:57:33.841Z,96374.48
2019-04-06T02:00:00.622Z,96376.73
2019-04-06T02:02:27.435Z,96374.20
2019-04-06T02:04:54.335Z,96373.14
2019-04-06T02:07:22.068Z,96373.81
2019-04-06T02:09:48.772Z,96379.62
2019-04-06T02:12:15.374Z,96375.66
2019-04-06T02:14:42.024Z,96373.02
2019-04-06T02:17:08.884Z,96373.94
2019-04-06T02:19:35.853Z,96371.52
2019-04-06T02:22:02.490Z,96368.53
2019-04-06T02:24:29.144Z,96371.11
2019-04-06T02:26:55.762Z,96373.28
2019-04-06T02:29:22.422Z,96375.64
2019-04-06T02:31:49.150Z,96380.28
2019-04-06T02:34:15.918Z,96385.08
2019-04-06T02:36:42.900Z,96380.08
2019-04-06T02:39:09.473Z,96388.06
2019-04-06T02:41:36.635Z,96388.45
2019-04-06T02:44:03.289Z,96384.95
2019-04-06T02:46:31.172Z,96387.59
2019-04-06T02:48:58.535Z,96391.90
2019-04-06T02:51:25.203Z,96390.36
2019-04-06T02:53:54.081Z,96388.86
2019-04-06T02:56:20.423Z,96387.72
2019-04-06T02:58:47.285Z,96393.34
2019-04-06T03:01:14.044Z,96390.58
2019-04-06T03:03:40.637Z,96394.08
2019-04-06T03:06:07.215Z,96393.34
2019-04-06T03:08:34.370Z,96393.34
2019-04-06T03:11:01.107Z,96385.57
2019-04-06T03:13:28.007Z,96395.23
2019-04-06T03:15:54.596Z,96387.70
2019-04-06T03:18:24.386Z,96379.48
2019-04-06T03:20:51.218Z,96384.25
2019-04-06T03:26:04.409Z,96387.32
2019-04-06T03:28:31.252Z,96386.40
2019-04-06T03:30:57.986Z,96384.62
2019-04-06T03:33:24.825Z,96381.18
2019-04-06T03:35:52.793Z,96387.53
2019-04-06T03:38:19.512Z,96385.14
2019-04-06T03:40:46.693Z,96391.61
2019-04-06T03:43:13.394Z,96391.28
2019-04-06T03:45:40.347Z,96391.28
2019-04-06T03:48:06.963Z,96387.72
2019-04-06T03:50:33.921Z,96388.19
2019-04-06T03:53:00.727Z,96389.98
2019-04-06T03:55:27.477Z,96391.13
2019-04-06T03:57:54.408Z,96386.15
2019-04-06T04:00:21.318Z,96388.06
2019-04-06T04:02:48.287Z,96387.09
2019-04-06T04:05:15.127Z,96390.47
2019-04-06T04:07:41.673Z,96405.22
2019-04-06T04:10:08.418Z,96407.51
2019-04-06T04:12:36.029Z,96412.72
2019-04-06T04:15:02.881Z,96413.66
2019-04-06T04:17:30.705Z,96404.80
2019-04-06T04:19:57.552Z,96406.64
2019-04-06T04:22:25.248Z,96409.48
2019-04-06T04:24:51.882Z,96415.70
2019-04-06T04:27:28.544Z,96413.89
2019-04-06T04:35:05.312Z,96414.22
2019-04-06T04:37:32.096Z,96424.18
2019-04-06T04:39:58.985Z,96424.88
2019-04-06T04:42:25.698Z,96423.83
2019-04-06T04:44:52.281Z,96423.73
2019-04-06T04:47:38.702Z,96429.81
2019-04-06T04:50:05.364Z,96424.18
2019-04-06T04:52:32.231Z,96427.34
2019-04-06T04:54:59.208Z,96434.09
2019-04-06T04:57:26.198Z,96439.66
2019-04-06T04:59:52.996Z,96437.42
2019-04-06T05:02:19.653Z,96447.77
2019-04-06T05:04:46.377Z,96446.94
2019-04-06T05:07:13.430Z,96439.66
2019-04-06T05:09:40.182Z,96451.08
2019-04-06T05:17:23.402Z,96452.81
2019-04-06T05:19:50.530Z,96451.28
2019-04-06T05:22:17.531Z,96453.30
2019-04-06T05:27:29.877Z,96465.44
2019-04-06T05:29:56.607Z,96463.17
2019-04-06T05:32:23.773Z,96465.23
2019-04-06T05:34:50.452Z,96468.50
2019-04-06T05:37:17.637Z,96471.13
2019-04-06T05:39:44.951Z,96470.85
2019-04-06T05:42:12.809Z,96479.00
2019-04-06T05:44:39.637Z,96482.94
2019-04-06T05:47:06.703Z,96493.06
2019-04-06T05:49:33.531Z,96489.67
2019-04-06T05:52:10.148Z,96494.19
2019-04-06T05:59:54.493Z,96502.74
2019-04-06T06:02:21.612Z,96508.59
2019-04-06T06:04:56.420Z,96509.34
2019-04-06T06:07:23.511Z,96505.19
2019-04-06T06:09:50.074Z,96508.13
2019-04-06T06:12:18.291Z,96506.55
2019-04-06T06:14:45.057Z,96512.13
2019-04-06T06:17:14.176Z,96514.75
2019-04-06T06:19:40.458Z,96515.95
2019-04-06T06:22:07.355Z,96520.70
2019-04-06T06:24:34.839Z,96516.91
2019-04-06T06:27:01.768Z,96514.34
2019-04-06T06:29:28.439Z,96517.34
2019-04-06T06:31:55.157Z,96518.56
2019-04-06T06:34:21.725Z,96521.50
2019-04-06T06:36:48.326Z,96525.89
2019-04-06T06:39:15.060Z,96521.47
2019-04-06T06:41:41.941Z,96513.86
2019-04-06T06:44:09.001Z,96521.98
2019-04-06T06:46:35.965Z,96518.22
2019-04-06T06:49:02.672Z,96521.80
2019-04-06T06:51:29.667Z,96515.86
2019-04-06T06:53:56.538Z,96521.76
2019-04-06T06:56:23.593Z,96524.77
2019-04-06T06:58:50.440Z,96516.14
2019-04-06T07:01:17.087Z,96520.13
2019-04-06T07:03:43.706Z,96524.38
2019-04-06T07:06:10.287Z,96521.83
2019-04-06T07:08:37.718Z,96523.36
2019-04-06T07:11:05.382Z,96525.77
2019-04-06T07:13:32.307Z,96524.39
2019-04-06T07:15:58.908Z,96531.89
2019-04-06T07:18:26.588Z,96534.38
2019-04-06T07:20:53.180Z,96542.62
2019-04-06T07:26:06.882Z,96536.27
2019-04-06T07:28:38.103Z,96536.00
2019-04-06T07:31:04.107Z,96538.76
2019-04-06T07:33:33.178Z,96538.97
2019-04-06T07:36:02.039Z,96540.31
2019-04-06T07:38:29.642Z,96545.01
2019-04-06T07:40:59.703Z,96543.40
2019-04-06T07:43:29.382Z,96547.31
2019-04-06T07:45:59.976Z,96541.17
2019-04-06T07:48:29.300Z,96552.38
2019-04-06T07:50:57.218Z,96555.77
2019-04-06T07:53:27.414Z,96555.44
2019-04-06T07:58:30.745Z,96562.93
2019-04-06T08:00:58.622Z,96558.23
2019-04-06T08:03:26.230Z,96557.83
2019-04-06T08:05:57.249Z,96562.34
2019-04-06T08:08:24.606Z,96561.77
2019-04-06T08:10:52.407Z,96564.84
2019-04-06T08:13:23.027Z,96571.16
2019-04-06T08:15:53.447Z,96566.02
2019-04-06T08:18:22.579Z,96571.23
2019-04-06T08:20:51.812Z,96571.88
2019-04-06T08:23:24.339Z,96574.95
2019-04-06T08:25:51.966Z,96573.67
2019-04-06T08:28:20.674Z,96573.98
2019-04-06T08:30:51.702Z,96571.63
2019-04-06T08:33:21.782Z,96570.50
2019-04-06T08:35:50.996Z,96576.88
2019-04-06T08:38:21.959Z,96572.99
2019-04-06T08:40:48.759Z,96577.56
2019-04-06T08:43:17.080Z,96580.08
2019-04-06T08:45:46.231Z,96581.94
2019-04-06T08:48:13.825Z,96589.38
2019-04-06T08:50:44.097Z,96591.68
2019-04-06T08:53:11.976Z,96595.98
2019-04-06T08:55:43.230Z,96600.88
2019-04-06T08:58:12.433Z,96600.35
2019-04-06T09:00:42.113Z,96600.81
2019-04-06T09:03:08.797Z,96608.19
2019-04-06T09:05:35.512Z,96604.63
2019-04-06T09:08:02.266Z,96612.48
2019-04-06T09:10:29.153Z,96615.81
2019-04-06T09:12:55.779Z,96612.02
2019-04-06T09:15:22.750Z,96612.25
2019-04-06T09:17:49.595Z,96613.76
2019-04-06T09:20:16.207Z,96619.69
2019-04-06T09:22:42.794Z,96619.53
2019-04-06T09:27:55.503Z,96617.08
2019-04-06T09:30:23.049Z,96617.26
2019-04-06T09:32:50.675Z,96612.44
2019-04-06T09:35:20.868Z,96616.34
2019-04-06T09:37:47.677Z,96622.32
2019-04-06T09:40:14.274Z,96621.00
2019-04-06T09:42:42.058Z,96616.56
2019-04-06T09:45:09.660Z,96622.03
2019-04-06T09:47:37.267Z,96620.89
2019-04-06T09:50:04.017Z,96620.30
2019-04-06T09:52:32.106Z,96612.59
2019-04-06T09:55:05.119Z,96616.98
2019-04-06T09:57:32.622Z,96614.50
2019-04-06T10:00:02.093Z,96608.64
2019-04-06T10:02:32.041Z,96608.63
2019-04-06T10:04:59.049Z,96609.22
2019-04-06T10:07:28.937Z,96609.25
2019-04-06T10:09:57.562Z,96606.13
2019-04-06T10:12:27.605Z,96607.09
2019-04-06T10:14:55.229Z,96604.80
2019-04-06T10:17:23.177Z,96605.42
2019-04-06T10:19:54.699Z,96604.16
2019-04-06T10:22:22.296Z,96606.75
2019-04-06T10:24:52.028Z,96599.33
2019-04-06T10:27:20.624Z,96602.95
2019-04-06T10:29:50.165Z,96601.41
2019-04-06T10:32:19.256Z,96605.58
2019-04-06T10:34:48.751Z,96604.34
2019-04-06T10:37:16.982Z,96602.13
2019-04-06T10:39:46.999Z,96598.19
2019-04-06T10:42:22.255Z,96597.50
2019-04-06T10:44:47.317Z,96600.63
2019-04-06T10:47:15.027Z,96590.19
2019-04-06T10:49:59.989Z,96593.19
2019-04-06T10:52:29.224Z,96595.09
2019-04-06T10:54:57.109Z,96594.47
2019-04-06T10:57:26.084Z,96589.39
2019-04-06T11:00:00.681Z,96585.20
2019-04-06T11:02:26.690Z,96585.87
2019-04-06T11:04:54.124Z,96588.55
2019-04-06T11:07:21.745Z,96580.63
2019-04-06T11:09:51.727Z,96583.33
2019-04-06T11:12:18.311Z,96582.55
2019-04-06T11:14:49.574Z,96584.05
2019-04-06T11:17:17.194Z,96581.59
2019-04-06T11:19:44.727Z,96582.30
2019-04-06T11:22:12.333Z,96582.35
2019-04-06T11:27:28.852Z,96575.28
2019-04-06T11:29:55.464Z,96577.45
2019-04-06T11:32:22.142Z,96574.66
2019-04-06T11:34:55.199Z,96570.83
2019-04-06T11:37:31.802Z,96575.46
2019-04-06T11:39:58.733Z,96577.21
2019-04-06T11:42:42.759Z,96571.89
2019-04-06T11:45:09.403Z,96570.24
2019-04-06T11:47:36.707Z,96565.25
2019-04-06T11:50:03.383Z,96568.34
2019-04-06T11:52:32.185Z,96561.27
2019-04-06T11:54:58.802Z,96567.48
2019-04-06T11:57:28.793Z,96561.34
2019-04-06T12:00:00.762Z,96558.88
2019-04-06T12:02:27.120Z,96564.85
2019-04-06T12:04:53.902Z,96561.92
2019-04-06T12:07:20.833Z,96562.59
2019-04-06T12:09:48.028Z,96562.23
2019-04-06T12:12:14.992Z,96562.00
2019-04-06T12:14:42.253Z,96557.95
2019-04-06T12:17:17.615Z,96554.06
2019-04-06T12:19:44.476Z,96560.77
2019-04-06T12:22:11.962Z,96556.19
2019-04-06T12:24:39.289Z,96554.98
2019-04-06T12:27:06.260Z,96545.69
2019-04-06T12:29:33.184Z,96549.33
2019-04-06T12:31:59.951Z,96544.47
2019-04-06T12:34:27.093Z,96551.94
2019-04-06T12:36:53.792Z,96548.16
2019-04-06T12:39:20.618Z,96536.89
2019-04-06T12:41:47.480Z,96533.72
2019-04-06T12:44:14.571Z,96527.91
2019-04-06T12:46:41.307Z,96529.24
2019-04-06T12:49:07.908Z,96527.98
2019-04-06T12:51:35.016Z,96529.94
2019-04-06T12:54:01.641Z,96530.05
2019-04-06T12:56:28.295Z,96525.80
2019-04-06T12:58:55.213Z,96524.38
2019-04-06T13:01:23.056Z,96519.02
2019-04-06T13:03:50.968Z,96518.43
2019-04-06T13:06:18.680Z,96517.84
2019-04-06T13:08:45.662Z,96516.95
2019-04-06T13:11:13.238Z,96514.82
2019-04-06T13:13:40.215Z,96513.45
2019-04-06T13:16:07.037Z,96517.03
2019-04-06T13:18:33.900Z,96521.77
2019-04-06T13:21:00.498Z,96520.70
2019-04-06T13:23:27.082Z,96525.66
2019-04-06T13:25:54.149Z,96523.80
2019-04-06T13:28:20.933Z,96520.85
2019-04-06T13:30:47.808Z,96519.05
2019-04-06T13:33:14.477Z,96517.27
2019-04-06T13:35:41.382Z,96521.31
2019-04-06T13:38:08.138Z,96515.64
2019-04-06T13:40:35.012Z,96524.52
2019-04-06T13:43:01.645Z,96523.64
2019-04-06T13:45:28.494Z,96525.38
2019-04-06T13:47:55.131Z,96513.23
2019-04-06T13:50:22.252Z,96508.91
2019-04-06T13:52:49.321Z,96515.25
2019-04-06T13:55:15.949Z,96513.50
2019-04-06T13:57:46.236Z,96516.66
2019-04-06T14:00:12.993Z,96517.02
2019-04-06T14:02:41.268Z,96511.80
2019-04-06T14:05:07.874Z,96504.91
2019-04-06T14:07:34.772Z,96506.38
2019-04-06T14:10:02.182Z,96508.45
2019-04-06T14:12:29.348Z,96516.69
2019-04-06T14:14:59.398Z,96515.39
2019-04-06T14:17:27.149Z,96518.90
2019-04-06T14:19:55.165Z,96518.61
2019-04-06T14:22:22.801Z,96521.61
2019-04-06T14:24:52.622Z,96524.08
2019-04-06T14:27:19.449Z,96517.97
2019-04-06T14:29:46.846Z,96523.88
2019-04-06T14:32:14.724Z,96525.91
2019-04-06T14:34:42.126Z,96527.08
2019-04-06T14:37:09.708Z,96530.24
2019-04-06T14:39:37.371Z,96525.78
2019-04-06T14:42:05.040Z,96535.44
2019-04-06T14:44:32.862Z,96531.77
2019-04-06T14:46:59.713Z,96519.30
2019-04-06T14:49:30.738Z,96520.09
2019-04-06T14:51:58.640Z,96518.81
2019-04-06T14:54:27.123Z,96524.75
2019-04-06T14:56:55.084Z,96518.07
2019-04-06T14:59:22.688Z,96519.55
2019-04-06T15:01:57.770Z,96523.21
2019-04-06T15:04:18.409Z,96514.50
2019-04-06T15:06:46.131Z,96518.48
2019-04-06T15:09:14.097Z,96522.70
2019-04-06T15:11:40.866Z,96518.02
2019-04-06T15:14:08.774Z,96521.77
2019-04-06T15:16:37.875Z,96514.13
2019-04-06T15:19:04.870Z,96515.06
2019-04-06T15:21:32.543Z,96517.34
2019-04-06T15:24:00.561Z,96512.14
2019-04-06T15:26:28.474Z,96516.66
2019-04-06T15:29:05.485Z,96516.48
2019-04-06T15:31:33.240Z,96523.92
2019-04-06T15:33:59.973Z,96523.59
2019-04-06T15:36:27.809Z,96526.81
2019-04-06T15:38:54.755Z,96525.52
2019-04-06T15:41:22.577Z,96521.87
2019-04-06T15:43:50.678Z,96518.17
2019-04-06T15:46:17.763Z,96523.98
2019-04-06T15:48:44.549Z,96521.83
2019-04-06T15:51:12.074Z,96516.05
2019-04-06T15:53:38.670Z,96510.58
2019-04-06T15:56:05.692Z,96515.03
2019-04-06T15:58:32.467Z,96521.55
2019-04-06T16:00:59.294Z,96507.45
2019-04-06T16:03:26.915Z,96523.45
2019-04-06T16:05:57.763Z,96519.11
2019-04-06T16:08:27.663Z,96517.25
2019-04-06T16:10:54.533Z,96513.87
2019-04-06T16:13:22.510Z,96515.92
2019-04-06T16:15:50.228Z,96511.18
2019-04-06T16:18:17.672Z,96513.67
2019-04-06T16:20:44.302Z,96512.31
2019-04-06T16:23:12.014Z,96510.45
2019-04-06T16:25:39.798Z,96514.83
2019-04-06T16:28:06.389Z,96515.53
2019-04-06T16:30:34.470Z,96512.39
2019-04-06T16:33:01.928Z,96511.67
2019-04-06T16:35:29.800Z,96507.50
2019-04-06T16:37:57.601Z,96504.99
2019-04-06T16:40:24.201Z,96507.52
2019-04-06T16:42:51.555Z,96508.88
2019-04-06T16:45:18.226Z,96510.78
2019-04-06T16:47:46.113Z,96505.14
2019-04-06T16:50:12.689Z,96508.48
2019-04-06T16:52:39.280Z,96509.51
2019-04-06T16:55:05.925Z,96505.63
2019-04-06T16:57:33.086Z,96505.06
2019-04-06T16:59:59.772Z,96502.57
2019-04-06T17:02:30.453Z,96507.84
2019-04-06T17:04:58.289Z,96511.28
2019-04-06T17:07:26.311Z,96508.86
2019-04-06T17:09:54.074Z,96507.58
2019-04-06T17:12:22.185Z,96508.84
2019-04-06T17:14:51.898Z,96518.16
2019-04-06T17:17:18.675Z,96516.30
2019-04-06T17:19:45.476Z,96516.98
2019-04-06T17:22:12.500Z,96513.83
2019-04-06T17:27:17.789Z,96515.63
2019-04-06T17:29:44.921Z,96517.97
2019-04-06T17:32:13.296Z,96510.02
2019-04-06T17:34:52.753Z,96518.71
2019-04-06T17:37:27.568Z,96517.87
2019-04-06T17:39:54.993Z,96512.08
2019-04-06T17:42:24.041Z,96518.27
2019-04-06T17:44:54.583Z,96521.21
2019-04-06T17:47:25.684Z,96521.21
2019-04-06T17:49:50.661Z,96524.27
2019-04-06T17:52:17.375Z,96527.11
2019-04-06T17:55:08.395Z,96526.58
2019-04-06T17:57:12.929Z,96533.52
2019-04-06T17:59:41.494Z,96531.75
2019-04-06T18:02:12.241Z,96533.68
2019-04-06T18:04:42.431Z,96531.20
2019-04-06T18:09:59.331Z,96534.85
2019-04-06T18:12:26.419Z,96535.65
2019-04-06T18:14:55.247Z,96539.37
2019-04-06T18:17:25.492Z,96542.56
2019-04-06T18:19:53.681Z,96543.09
2019-04-06T18:22:41.603Z,96550.16
2019-04-06T18:24:59.475Z,96549.19
2019-04-06T18:27:27.906Z,96551.52
2019-04-06T18:29:56.728Z,96551.66
2019-04-06T18:32:28.287Z,96551.59
2019-04-06T18:34:58.518Z,96548.47
2019-04-06T18:37:25.694Z,96553.00
2019-04-06T18:39:54.707Z,96550.08
2019-04-06T18:42:26.103Z,96548.33
2019-04-06T18:45:05.281Z,96550.17
2019-04-06T18:59:06.170Z,96555.63
2019-04-06T19:01:19.547Z,96554.35
2019-04-06T19:06:56.353Z,96550.36
2019-04-06T19:15:01.587Z,96556.23
2019-04-06T19:17:31.876Z,96545.39
2019-04-06T19:19:58.635Z,96545.07
2019-04-06T19:22:25.532Z,96549.59
2019-04-06T19:24:53.371Z,96550.86
2019-04-06T19:27:29.964Z,96553.66
2019-04-06T19:30:08.793Z,96556.89
2019-04-06T19:32:38.963Z,96540.84
2019-04-06T19:35:12.140Z,96548.87
2019-04-06T19:40:23.946Z,96542.41
2019-04-06T19:42:56.389Z,96539.21
2019-04-06T19:45:24.978Z,96545.03
2019-04-06T19:47:51.860Z,96540.33
2019-04-06T19:50:18.781Z,96536.90
2019-04-06T19:52:54.023Z,96532.11
2019-04-06T19:55:21.402Z,96538.58
2019-04-06T19:57:50.668Z,96532.53
2019-04-06T20:00:17.814Z,96535.66
2019-04-06T20:02:44.816Z,96531.50
2019-04-06T20:05:14.502Z,96526.63
2019-04-06T20:07:47.118Z,96526.08
2019-04-06T20:10:15.103Z,96527.83
2019-04-06T20:12:41.834Z,96524.44
2019-04-06T20:15:09.518Z,96528.13
2019-04-06T20:17:37.490Z,96524.02
2019-04-06T20:20:05.395Z,96519.14
2019-04-06T20:22:34.153Z,96523.73
2019-04-06T20:25:02.145Z,96523.06
2019-04-06T20:27:29.095Z,96522.27
2019-04-06T20:29:56.707Z,96524.64
2019-04-06T20:32:23.851Z,96526.06
2019-04-06T20:34:52.111Z,96522.56
2019-04-06T20:37:20.595Z,96526.39
2019-04-06T20:39:47.701Z,96522.31
2019-04-06T20:42:14.462Z,96525.76
2019-04-06T20:44:42.733Z,96521.93
2019-04-06T20:47:09.398Z,96526.58
2019-04-06T20:49:37.373Z,96523.21
2019-04-06T20:52:04.489Z,96524.27
2019-04-06T20:54:31.899Z,96526.53
2019-04-06T20:56:59.805Z,96525.68
2019-04-06T20:59:26.603Z,96521.13
2019-04-06T21:01:54.332Z,96523.09
2019-04-06T21:04:21.232Z,96526.27
2019-04-06T21:06:49.263Z,96519.63
2019-04-06T21:09:16.181Z,96520.52
2019-04-06T21:11:43.917Z,96514.78
2019-04-06T21:14:11.560Z,96513.78
2019-04-06T21:16:39.240Z,96511.49
2019-04-06T21:19:07.019Z,96509.38
2019-04-06T21:21:35.303Z,96504.61
2019-04-06T21:24:04.696Z,96507.09
2019-04-06T21:26:32.474Z,96508.22
2019-04-06T21:28:59.251Z,96508.97
2019-04-06T21:31:25.825Z,96507.27
2019-04-06T21:33:52.972Z,96511.34
2019-04-06T21:36:19.566Z,96507.72
2019-04-06T21:38:46.400Z,96508.59
2019-04-06T21:41:13.720Z,96508.45
2019-04-06T21:43:41.579Z,96513.44
2019-04-06T21:46:09.272Z,96511.81
2019-04-06T21:48:35.941Z,96509.91
2019-04-06T21:51:03.107Z,96511.63
2019-04-06T21:53:29.898Z,96509.97
2019-04-06T21:56:03.434Z,96504.23
2019-04-06T21:58:25.507Z,96508.38
2019-04-06T22:00:52.682Z,96510.22
2019-04-06T22:03:19.287Z,96511.54
2019-04-06T22:05:46.436Z,96508.49
2019-04-06T22:08:13.428Z,96508.89
2019-04-06T22:10:40.487Z,96510.77
2019-04-06T22:13:07.083Z,96513.42
2019-04-06T22:15:33.999Z,96510.44
2019-04-06T22:18:01.141Z,96505.03
2019-04-06T22:20:28.147Z,96506.13
2019-04-06T22:22:54.962Z,96499.12
2019-04-06T22:25:22.534Z,96504.69
2019-04-06T22:27:49.294Z,96500.73
2019-04-06T22:30:18.712Z,96496.30
2019-04-06T22:32:44.962Z,96502.63
2019-04-06T22:35:11.628Z,96499.25
2019-04-06T22:37:38.604Z,96501.52
2019-04-06T22:40:05.472Z,96496.02
2019-04-06T22:42:32.078Z,96498.33
2019-04-06T22:44:58.842Z,96488.03
2019-04-06T22:47:25.526Z,96488.64
2019-04-06T22:49:52.156Z,96489.48
2019-04-06T22:52:19.693Z,96488.77
2019-04-06T22:54:46.402Z,96485.92
2019-04-06T22:57:13.415Z,96481.77
2019-04-06T23:02:12.271Z,96481.09
2019-04-06T23:04:47.582Z,96476.09
2019-04-06T23:07:07.550Z,96475.91
2019-04-06T23:09:34.402Z,96473.09
2019-04-06T23:12:00.997Z,96470.05
2019-04-06T23:14:28.422Z,96469.07
2019-04-06T23:16:55.390Z,96470.73
2019-04-06T23:19:22.578Z,96469.36
2019-04-06T23:21:49.283Z,96470.06
2019-04-06T23:27:01.434Z,96463.05
2019-04-06T23:29:28.205Z,96471.45
2019-04-06T23:31:54.969Z,96455.13
2019-04-06T23:34:21.957Z,96458.39
2019-04-06T23:36:50.028Z,96458.05
2019-04-06T23:39:17.227Z,96450.86
2019-04-06T23:41:43.865Z,96457.87
2019-04-06T23:44:10.751Z,96453.29
2019-04-06T23:46:37.348Z,96454.66
2019-04-06T23:49:04.192Z,96453.89
2019-04-06T23:51:31.420Z,96450.70
2019-04-06T23:53:58.514Z,96445.36
2019-04-06T23:56:25.434Z,96444.83
2019-04-06T23:58:52.361Z,96445.80
